Flight Track Log - Related Links

Times and Time Zones

All times are in EDT time to prevent confusion due to time zone crossing. See the CSH9127 flight status page for this flight to view local times or setup timezone preferences in your user account.

Time Position Orientation Groundspeed Altitude Reporting Facility
EDT Latitude Longitude Course Direction KTS MPH feet Rate Location/Type
Mon 12:28:00 AM 32.0205 120.6340 324° Northwest  Level Estimated
Mon 12:29:00 AM 32.1231 120.5453 324° Northwest  Level Estimated
Mon 12:30:00 AM 32.2256 120.4564 324° Northwest  Level Estimated
Mon 12:31:00 AM 32.2955 120.3956 324° Northwest  Level Estimated
Mon 12:32:00 AM 32.3655 120.3347 324° Northwest  Level Estimated
Mon 12:33:00 AM 32.4354 120.2737 324° Northwest  Level Estimated
Mon 12:34:00 AM 32.5053 120.2125 324° Northwest  Level Estimated
Mon 12:35:00 AM 32.5752 120.1514 324° Northwest  Level Estimated
Mon 12:36:00 AM 32.6450 120.0900 324° Northwest  Level Estimated
Mon 12:37:00 AM 32.7148 120.0287 324° Northwest  Level Estimated
Mon 12:38:00 AM 32.7846 119.9672 323° Northwest  Level Estimated
Mon 12:39:00 AM 32.8543 119.9056 323° Northwest  Level Estimated
Mon 12:40:00 AM 32.9240 119.8439 323° Northwest  Level Estimated
Mon 12:41:00 AM 32.9937 119.7821 323° Northwest  Level Estimated
Mon 12:42:00 AM 33.0633 119.7202 323° Northwest  Level Estimated
Mon 12:43:00 AM 33.1330 119.6583 323° Northwest  Level Estimated
Mon 12:44:00 AM 33.2025 119.5962 323° Northwest  Level Estimated
Mon 12:45:00 AM 33.2721 119.5340 323° Northwest  Level Estimated
Mon 12:46:00 AM 33.3416 119.4717 323° Northwest  Level Estimated
Mon 12:47:00 AM 33.4111 119.4094 323° Northwest  Level Estimated
Mon 12:48:00 AM 33.4806 119.3469 323° Northwest  Level Estimated
Mon 12:49:00 AM 33.5500 119.2843 323° Northwest  Level Estimated
Mon 12:50:00 AM 33.6194 119.2217 323° Northwest  Level Estimated
Mon 12:51:00 AM 33.6888 119.1589 323° Northwest  Level Estimated
Mon 12:52:00 AM 33.7581 119.0960 323° Northwest  Level Estimated
Mon 12:53:00 AM 33.8274 119.0330 323° Northwest  Level Estimated
Mon 12:54:00 AM 33.8967 118.9699 323° Northwest  Level Estimated
Mon 12:55:00 AM 33.9660 118.9068 323° Northwest  Level Estimated
Mon 12:56:00 AM 34.0352 118.8435 323° Northwest  Level Estimated
Mon 12:57:00 AM 34.1044 118.7801 323° Northwest  Level Estimated
Mon 12:58:00 AM 34.1735 118.7166 323° Northwest  Level Estimated
Mon 12:59:00 AM 34.2426 118.6530 323° Northwest  Level Estimated
Mon 01:00:00 AM 34.3117 118.5893 323° Northwest  Level Estimated
Mon 01:01:00 AM 34.3807 118.5255 323° Northwest  Level Estimated
Mon 01:02:00 AM 34.4497 118.4616 323° Northwest  Level Estimated
Mon 01:03:00 AM 34.5187 118.3976 323° Northwest  Level Estimated
Mon 01:04:00 AM 34.5877 118.3334 323° Northwest  Level Estimated
Mon 01:05:00 AM 34.6566 118.2692 323° Northwest  Level Estimated
Mon 01:06:00 AM 34.7255 118.2049 322° Northwest  Level Estimated
Mon 01:07:00 AM 34.7943 118.1404 322° Northwest  Level Estimated
Mon 01:08:00 AM 34.8631 118.0759 322° Northwest  Level Estimated
Mon 01:09:00 AM 34.9319 118.0112 322° Northwest  Level Estimated
Mon 01:10:00 AM 35.0006 117.9464 322° Northwest  Level Estimated
Mon 01:11:00 AM 35.0693 117.8816 322° Northwest  Level Estimated
Mon 01:12:00 AM 35.1380 117.8166 322° Northwest  Level Estimated
Mon 01:13:00 AM 35.2066 117.7515 322° Northwest  Level Estimated
Mon 01:14:00 AM 35.2752 117.6863 322° Northwest  Level Estimated
Mon 01:15:00 AM 35.3438 117.6209 322° Northwest  Level Estimated
Mon 01:16:00 AM 35.4123 117.5555 322° Northwest  Level Estimated
Mon 01:17:00 AM 35.4809 117.4900 322° Northwest  Level Estimated
Mon 01:18:00 AM 35.5493 117.4243 322° Northwest  Level Estimated
Mon 01:19:00 AM 35.6177 117.3586 322° Northwest  Level Estimated
Mon 01:20:00 AM 35.6861 117.2927 322° Northwest  Level Estimated
Mon 01:21:00 AM 35.7545 117.2267 322° Northwest  Level Estimated
Mon 01:22:00 AM 35.8228 117.1606 322° Northwest  Level Estimated
Mon 01:23:00 AM 35.8911 117.0944 322° Northwest  Level Estimated
Mon 01:24:00 AM 35.9593 117.0281 322° Northwest  Level Estimated
Mon 01:25:00 AM 36.0275 116.9616 322° Northwest  Level Estimated
Mon 01:26:00 AM 36.0957 116.8951 322° Northwest  Level Estimated
Mon 01:27:00 AM 36.1638 116.8284 322° Northwest  Level Estimated
Mon 01:28:00 AM 36.2319 116.7616 322° Northwest  Level Estimated
Mon 01:29:00 AM 36.3000 116.6947 322° Northwest  Level Estimated
Mon 01:30:00 AM 36.3680 116.6277 322° Northwest  Level Estimated
Mon 01:31:00 AM 36.4360 116.5605 322° Northwest  Level Estimated
Mon 01:32:00 AM 36.5040 116.4933 322° Northwest  Level Estimated
Mon 01:33:00 AM 36.5719 116.4259 321° Northwest  Level Estimated
Mon 01:34:00 AM 36.6398 116.3584 321° Northwest  Level Estimated
Mon 01:35:00 AM 36.7076 116.2908 321° Northwest  Level Estimated
Mon 01:36:00 AM 36.7754 116.2231 321° Northwest  Level Estimated
Mon 01:37:00 AM 36.8432 116.1552 321° Northwest  Level Estimated
Mon 01:38:00 AM 36.9109 116.0872 321° Northwest  Level Estimated
Mon 01:39:00 AM 36.9785 116.0191 321° Northwest  Level Estimated
Mon 01:40:00 AM 37.0462 115.9509 321° Northwest  Level Estimated
Mon 01:41:00 AM 37.1138 115.8826 321° Northwest  Level Estimated
Mon 01:42:00 AM 37.1814 115.8141 321° Northwest  Level Estimated
Mon 01:43:00 AM 37.2489 115.7455 321° Northwest  Level Estimated
Mon 01:44:00 AM 37.3163 115.6768 321° Northwest  Level Estimated
Mon 01:45:00 AM 37.3838 115.6080 321° Northwest  Level Estimated
Mon 01:46:00 AM 37.4512 115.5390 321° Northwest  Level Estimated
Mon 01:47:00 AM 37.5186 115.4700 321° Northwest  Level Estimated
Mon 01:48:00 AM 37.5859 115.4008 321° Northwest  Level Estimated
Mon 01:49:00 AM 37.6531 115.3314 321° Northwest  Level Estimated
Mon 01:50:00 AM 37.7204 115.2620 321° Northwest  Level Estimated
Mon 01:51:00 AM 37.7876 115.1924 321° Northwest  Level Estimated
Mon 01:52:00 AM 37.8548 115.1227 321° Northwest  Level Estimated
Mon 01:53:00 AM 37.9219 115.0529 321° Northwest  Level Estimated
Mon 01:54:00 AM 37.9889 114.9829 321° Northwest  Level Estimated
Mon 01:55:00 AM 38.0560 114.9128 321° Northwest  Level Estimated
Mon 01:56:00 AM 38.1230 114.8426 321° Northwest  Level Estimated
Mon 01:57:00 AM 38.1899 114.7722 320° Northwest  Level Estimated
Mon 01:58:00 AM 38.2569 114.7018 320° Northwest  Level Estimated
Mon 01:59:00 AM 38.3237 114.6312 320° Northwest  Level Estimated
Mon 02:00:00 AM 38.3905 114.5604 320° Northwest  Level Estimated
Mon 02:01:00 AM 38.4573 114.4896 320° Northwest  Level Estimated
Mon 02:02:00 AM 38.5241 114.4186 320° Northwest  Level Estimated
Mon 02:03:00 AM 38.5908 114.3474 320° Northwest  Level Estimated
Mon 02:04:00 AM 38.6574 114.2762 320° Northwest  Level Estimated
Mon 02:05:00 AM 38.7240 114.2048 320° Northwest  Level Estimated
Mon 02:06:00 AM 38.7906 114.1333 320° Northwest  Level Estimated
Mon 02:07:00 AM 38.8571 114.0616 320° Northwest  Level Estimated
Mon 02:08:00 AM 38.9236 113.9898 320° Northwest  Level Estimated
Mon 02:09:00 AM 38.9901 113.9179 320° Northwest  Level Estimated
Mon 02:10:00 AM 39.0564 113.8458 320° Northwest  Level Estimated
Mon 02:11:00 AM 39.1228 113.7736 320° Northwest  Level Estimated
Mon 02:12:00 AM 39.1891 113.7013 320° Northwest  Level Estimated
Mon 02:13:00 AM 39.2554 113.6288 320° Northwest  Level Estimated
Mon 02:14:00 AM 39.3216 113.5562 320° Northwest  Level Estimated
Mon 02:15:00 AM 39.3877 113.4835 320° Northwest  Level Estimated
Mon 02:16:00 AM 39.4539 113.4106 320° Northwest  Level Estimated
Mon 02:17:00 AM 39.5199 113.3375 320° Northwest  Level Estimated
Mon 02:18:00 AM 39.5860 113.2644 320° Northwest  Level Estimated
Mon 02:19:00 AM 39.6520 113.1911 319° Northwest  Level Estimated
Mon 02:20:00 AM 39.7179 113.1176 319° Northwest  Level Estimated
Mon 02:21:00 AM 39.7838 113.0441 319° Northwest  Level Estimated
Mon 02:22:00 AM 39.8496 112.9703 319° Northwest  Level Estimated
Mon 02:23:00 AM 39.9154 112.8965 319° Northwest  Level Estimated
Mon 02:24:00 AM 39.9812 112.8225 319° Northwest  Level Estimated
Mon 02:25:00 AM 40.0469 112.7483 319° Northwest  Level Estimated
Mon 02:26:00 AM 40.1126 112.6740 319° Northwest  Level Estimated
Mon 02:27:00 AM 40.1782 112.5996 319° Northwest  Level Estimated
Mon 02:28:00 AM 40.2437 112.5250 319° Northwest  Level Estimated
Mon 02:29:00 AM 40.3092 112.4503 319° Northwest  Level Estimated
Mon 02:30:00 AM 40.3747 112.3754 319° Northwest  Level Estimated
Mon 02:31:00 AM 40.4401 112.3004 319° Northwest  Level Estimated
Mon 02:32:00 AM 40.5055 112.2252 319° Northwest  Level Estimated
Mon 02:33:00 AM 40.5708 112.1499 319° Northwest  Level Estimated
Mon 02:34:00 AM 40.6361 112.0745 319° Northwest  Level Estimated
Mon 02:35:00 AM 40.7013 111.9989 319° Northwest  Level Estimated
Mon 02:36:00 AM 40.7665 111.9231 319° Northwest  Level Estimated
Mon 02:37:00 AM 40.8316 111.8472 319° Northwest  Level Estimated
Mon 02:38:00 AM 40.8514 111.8241 319° Northwest  Level Estimated
Mon 02:39:00 AM 40.8514 111.8241 49° Northeast  Level Estimated
Mon 02:40:00 AM 40.8514 111.8241 49° Northeast  Level Estimated
Mon 02:41:00 AM 40.8514 111.8241 49° Northeast  Level Estimated
Mon 02:42:00 AM 40.8514 111.8241 49° Northeast  Level Estimated
Mon 02:43:00 AM 40.8514 111.8241 49° Northeast  Level Estimated
Mon 02:44:00 AM 40.8514 111.8241 49° Northeast  Level Estimated
Mon 02:45:00 AM 40.8514 111.8241 49° Northeast  Level Estimated
Mon 02:46:00 AM 40.8514 111.8241 49° Northeast  Level Estimated
Mon 02:47:00 AM 40.8514 111.8241 49° Northeast  Level Estimated
Mon 02:48:00 AM 40.8514 111.8241 49° Northeast  Level Estimated
Mon 02:49:00 AM 40.8514 111.8241 49° Northeast  Level Estimated
Mon 02:50:00 AM 40.8514 111.8241 49° Northeast  Level Estimated
Mon 02:51:00 AM 40.8514 111.8241 49° Northeast  Level Estimated
Mon 02:52:00 AM 40.8514 111.8241 49° Northeast  Level Estimated
Mon 02:53:00 AM 40.8514 111.8241 49° Northeast  Level Estimated
Mon 02:54:00 AM 40.8514 111.8241 49° Northeast  Level Estimated
Mon 02:55:00 AM 40.8514 111.8241 49° Northeast  Level Estimated
Mon 02:56:00 AM 40.8514 111.8241 49° Northeast  Level Estimated
Mon 02:57:00 AM 40.8514 111.8241 49° Northeast  Level Estimated
Mon 02:58:00 AM 40.8514 111.8241 49° Northeast  Level Estimated

Login

Don't have an account? Register now (free) for customized features, flight alerts, and more!